createdAt,value
2023-11-11T00:00:47.547Z,0
2023-11-11T00:02:03.713Z,0
2023-11-11T00:03:19.863Z,0
2023-11-11T00:04:36.014Z,0
2023-11-11T00:05:52.172Z,0
2023-11-11T00:07:08.331Z,0
2023-11-11T00:08:24.490Z,0
2023-11-11T00:09:40.641Z,0
2023-11-11T00:10:56.810Z,0
2023-11-11T00:12:12.948Z,0
2023-11-11T00:13:29.114Z,0
2023-11-11T00:14:44.281Z,0
2023-11-11T00:16:00.426Z,0
2023-11-11T00:17:16.590Z,0
2023-11-11T00:18:32.747Z,0
2023-11-11T00:19:48.892Z,0
2023-11-11T00:21:05.043Z,0
2023-11-11T00:22:21.194Z,0
2023-11-11T00:23:37.358Z,0
2023-11-11T00:24:53.516Z,0
2023-11-11T00:26:09.681Z,0
2023-11-11T00:27:25.825Z,0
2023-11-11T00:28:41.982Z,0
2023-11-11T00:29:58.133Z,0
2023-11-11T00:31:13.312Z,0
2023-11-11T00:32:29.453Z,0
2023-11-11T00:33:45.621Z,0
2023-11-11T00:35:01.776Z,0
2023-11-11T00:36:17.920Z,0
2023-11-11T00:37:34.092Z,0
2023-11-11T00:38:49.261Z,0
2023-11-11T00:40:05.405Z,0
2023-11-11T00:41:21.556Z,0
2023-11-11T00:42:37.714Z,0
2023-11-11T00:43:53.871Z,0
2023-11-11T00:45:10.022Z,0
2023-11-11T00:46:26.187Z,0
2023-11-11T00:47:42.338Z,0
2023-11-11T00:48:58.502Z,0
2023-11-11T00:50:14.654Z,0
2023-11-11T00:51:30.812Z,0
2023-11-11T00:52:46.970Z,0
2023-11-11T00:54:03.134Z,0
2023-11-11T00:55:18.288Z,0
2023-11-11T00:56:34.449Z,0
2023-11-11T00:57:50.605Z,0
2023-11-11T00:59:06.771Z,0
2023-11-11T01:00:22.915Z,0
2023-11-11T01:01:39.071Z,0
2023-11-11T01:02:55.231Z,0
2023-11-11T01:04:11.387Z,0
2023-11-11T01:05:27.537Z,0
2023-11-11T01:06:43.696Z,0
2023-11-11T01:07:59.847Z,0
2023-11-11T01:09:16.004Z,0
2023-11-11T01:10:32.162Z,0
2023-11-11T01:11:47.319Z,0
2023-11-11T01:13:03.468Z,0
2023-11-11T01:14:19.622Z,0
2023-11-11T01:15:35.777Z,0
2023-11-11T01:16:51.934Z,0
2023-11-11T01:18:08.078Z,0
2023-11-11T01:19:24.244Z,0
2023-11-11T01:20:40.408Z,0
2023-11-11T01:21:56.552Z,0
2023-11-11T01:23:12.721Z,0
2023-11-11T01:24:28.875Z,0
2023-11-11T01:25:45.021Z,0
2023-11-11T01:27:01.184Z,0
2023-11-11T01:28:16.353Z,0
2023-11-11T01:29:32.503Z,0
2023-11-11T01:30:48.661Z,0
2023-11-11T01:32:04.823Z,0
2023-11-11T01:33:20.983Z,0
2023-11-11T01:34:37.151Z,0
2023-11-11T01:35:53.299Z,0
2023-11-11T01:37:09.466Z,0
2023-11-11T01:38:25.637Z,0
2023-11-11T01:39:41.811Z,0
2023-11-11T01:40:57.960Z,0
2023-11-11T01:42:14.124Z,0
2023-11-11T01:43:30.267Z,0
2023-11-11T01:44:45.444Z,0
2023-11-11T01:46:01.625Z,0
2023-11-11T01:47:17.795Z,0
2023-11-11T01:48:33.937Z,0
2023-11-11T01:49:50.111Z,0
2023-11-11T01:51:06.277Z,0
2023-11-11T01:52:22.433Z,0
2023-11-11T01:53:38.578Z,0
2023-11-11T01:54:54.742Z,0
2023-11-11T01:56:10.908Z,0
2023-11-11T01:57:27.059Z,0
2023-11-11T01:58:43.226Z,0
2023-11-11T01:59:59.381Z,0
2023-11-11T02:01:14.564Z,0
2023-11-11T02:02:30.729Z,0
2023-11-11T02:03:46.895Z,0
2023-11-11T02:05:03.037Z,0
2023-11-11T02:06:19.202Z,0
2023-11-11T02:07:35.354Z,0
2023-11-11T02:08:51.524Z,0
2023-11-11T02:10:07.690Z,0
2023-11-11T02:11:23.830Z,0
2023-11-11T02:12:39.986Z,0
2023-11-11T02:13:56.149Z,0
2023-11-11T02:15:12.314Z,0
2023-11-11T02:16:28.464Z,0
2023-11-11T02:17:43.648Z,0
2023-11-11T02:18:59.800Z,0
2023-11-11T02:20:15.952Z,0
2023-11-11T02:21:32.113Z,0
2023-11-11T02:22:48.275Z,0
2023-11-11T02:24:04.424Z,0
2023-11-11T02:25:20.581Z,0
2023-11-11T02:26:36.747Z,0
2023-11-11T02:27:52.897Z,0
2023-11-11T02:29:09.055Z,0
2023-11-11T02:30:25.207Z,0
2023-11-11T02:31:41.365Z,0
2023-11-11T02:32:57.541Z,0
2023-11-11T02:34:12.719Z,0
2023-11-11T02:35:28.862Z,0
2023-11-11T02:36:45.043Z,0
2023-11-11T02:38:01.198Z,0
2023-11-11T02:39:17.351Z,0
2023-11-11T02:40:33.512Z,0
2023-11-11T02:41:49.685Z,0
2023-11-11T02:43:05.845Z,0
2023-11-11T02:44:22.002Z,0
2023-11-11T02:45:38.170Z,0
2023-11-11T02:46:54.327Z,0
2023-11-11T02:48:10.484Z,0
2023-11-11T02:49:26.647Z,0
2023-11-11T02:50:41.818Z,0
2023-11-11T02:51:57.998Z,0
2023-11-11T02:53:14.141Z,0
2023-11-11T02:54:30.299Z,0
2023-11-11T02:55:46.479Z,0
2023-11-11T02:57:02.632Z,0
2023-11-11T02:58:18.778Z,0
2023-11-11T02:59:34.951Z,0
2023-11-11T03:00:51.102Z,0
2023-11-11T03:02:07.273Z,0
2023-11-11T03:03:23.433Z,0
2023-11-11T03:04:39.590Z,0
2023-11-11T03:05:55.728Z,0
2023-11-11T03:07:10.903Z,0
2023-11-11T03:08:27.045Z,0
2023-11-11T03:09:43.197Z,0
2023-11-11T03:10:59.362Z,0
2023-11-11T03:12:15.522Z,0
2023-11-11T03:13:31.682Z,0
2023-11-11T03:14:47.829Z,0
2023-11-11T03:16:03.980Z,0
2023-11-11T03:17:20.122Z,0
2023-11-11T03:18:36.282Z,0
2023-11-11T03:19:52.449Z,0
2023-11-11T03:21:08.597Z,0
2023-11-11T03:22:24.755Z,0
2023-11-11T03:23:39.935Z,0
2023-11-11T03:24:56.110Z,0
2023-11-11T03:26:12.254Z,0
2023-11-11T03:27:28.397Z,0
2023-11-11T03:28:44.000Z,0
2023-11-11T03:30:00.713Z,0
2023-11-11T03:31:16.878Z,0
2023-11-11T03:32:33.022Z,0
2023-11-11T03:33:49.179Z,0
2023-11-11T03:35:05.338Z,0
2023-11-11T03:36:21.483Z,0
2023-11-11T03:37:37.639Z,0
2023-11-11T03:38:53.800Z,0
2023-11-11T03:40:08.965Z,0
2023-11-11T03:41:25.138Z,0
2023-11-11T03:42:41.288Z,0
2023-11-11T03:43:57.446Z,0
2023-11-11T03:45:13.611Z,0
2023-11-11T03:46:29.769Z,0
2023-11-11T03:47:45.934Z,0
2023-11-11T03:49:02.085Z,0
2023-11-11T03:50:18.257Z,0
2023-11-11T03:51:34.408Z,0
2023-11-11T03:52:50.580Z,0
2023-11-11T03:54:06.738Z,0
2023-11-11T03:55:22.891Z,0
2023-11-11T03:56:38.067Z,0
2023-11-11T03:57:54.229Z,0
2023-11-11T03:59:10.386Z,0
2023-11-11T04:00:26.560Z,0
2023-11-11T04:01:42.703Z,0
2023-11-11T04:02:58.862Z,0
2023-11-11T04:04:15.027Z,0
2023-11-11T04:05:31.191Z,0
2023-11-11T04:06:47.351Z,0
2023-11-11T04:08:03.506Z,0
2023-11-11T04:09:19.664Z,0
2023-11-11T04:10:35.823Z,0
2023-11-11T04:11:51.967Z,0
2023-11-11T04:13:07.141Z,0
2023-11-11T04:14:23.293Z,0
2023-11-11T04:15:39.458Z,0
2023-11-11T04:16:55.609Z,0
2023-11-11T04:18:11.774Z,0
2023-11-11T04:19:27.938Z,0
2023-11-11T04:20:44.097Z,0
2023-11-11T04:22:00.240Z,0
2023-11-11T04:23:16.419Z,0
2023-11-11T04:24:32.563Z,0
2023-11-11T04:25:48.728Z,0
2023-11-11T04:27:04.893Z,0
2023-11-11T04:28:21.050Z,0
2023-11-11T04:29:36.212Z,0
2023-11-11T04:30:52.377Z,0
2023-11-11T04:32:08.528Z,0
2023-11-11T04:33:24.693Z,0
2023-11-11T04:34:40.841Z,0
2023-11-11T04:35:57.016Z,0
2023-11-11T04:37:13.162Z,0
2023-11-11T04:38:29.327Z,0
2023-11-11T04:39:45.495Z,0
2023-11-11T04:41:01.648Z,0
2023-11-11T04:42:17.812Z,0
2023-11-11T04:43:33.963Z,0
2023-11-11T04:44:50.107Z,0
2023-11-11T04:46:05.290Z,0
2023-11-11T04:47:21.434Z,0
2023-11-11T04:48:37.605Z,0
2023-11-11T04:49:53.743Z,0
2023-11-11T04:51:09.900Z,0
2023-11-11T04:52:26.065Z,0
2023-11-11T04:53:41.241Z,0
2023-11-11T04:54:57.410Z,0
2023-11-11T04:56:13.572Z,0
2023-11-11T04:57:29.737Z,0
2023-11-11T04:58:45.888Z,0
2023-11-11T05:00:02.059Z,0
2023-11-11T05:01:18.231Z,0
2023-11-11T05:02:34.389Z,0
2023-11-11T05:03:50.546Z,0
2023-11-11T05:05:06.718Z,0
2023-11-11T05:06:22.870Z,0
2023-11-11T05:07:39.035Z,0
2023-11-11T05:08:55.185Z,0
2023-11-11T05:10:10.374Z,0
2023-11-11T05:11:26.534Z,0
2023-11-11T05:12:42.703Z,0
2023-11-11T05:13:58.877Z,0
2023-11-11T05:15:15.037Z,0
2023-11-11T05:16:31.200Z,0
2023-11-11T05:17:47.365Z,0
2023-11-11T05:19:03.530Z,0
2023-11-11T05:20:19.709Z,0
2023-11-11T05:21:35.859Z,0
2023-11-11T05:22:52.025Z,0
2023-11-11T05:24:08.183Z,0
2023-11-11T05:25:24.343Z,0
2023-11-11T05:26:39.531Z,0
2023-11-11T05:27:55.682Z,0
2023-11-11T05:29:11.861Z,0
2023-11-11T05:30:28.011Z,0
2023-11-11T05:31:44.169Z,0
2023-11-11T05:33:00.342Z,0
2023-11-11T05:34:16.496Z,0
2023-11-11T05:35:32.666Z,0
2023-11-11T05:36:48.836Z,0
2023-11-11T05:38:04.997Z,0
2023-11-11T05:39:21.145Z,0
2023-11-11T05:40:37.312Z,0
2023-11-11T05:41:53.460Z,0
2023-11-11T05:43:08.643Z,0
2023-11-11T05:44:24.794Z,0
2023-11-11T05:45:40.953Z,0
2023-11-11T05:46:57.119Z,0
2023-11-11T05:48:13.277Z,0
2023-11-11T05:49:29.447Z,0
2023-11-11T05:50:45.598Z,0
2023-11-11T05:52:01.765Z,0
2023-11-11T05:53:17.941Z,0
2023-11-11T05:54:34.092Z,0
2023-11-11T05:55:50.258Z,0
2023-11-11T05:57:06.414Z,0
2023-11-11T05:58:22.588Z,0
2023-11-11T05:59:37.759Z,0
2023-11-11T06:00:53.934Z,0
2023-11-11T06:02:10.086Z,0
2023-11-11T06:03:26.266Z,0
2023-11-11T06:04:42.430Z,0
2023-11-11T06:05:58.589Z,0
2023-11-11T06:07:14.752Z,0
2023-11-11T06:08:30.939Z,0
2023-11-11T06:09:47.097Z,0
2023-11-11T06:11:03.262Z,0
2023-11-11T06:12:19.419Z,0
2023-11-11T06:13:35.584Z,0
2023-11-11T06:14:51.749Z,0
2023-11-11T06:16:06.926Z,0
2023-11-11T06:17:23.090Z,0
2023-11-11T06:18:39.258Z,0
2023-11-11T06:19:55.413Z,0
2023-11-11T06:21:11.586Z,0
2023-11-11T06:22:27.752Z,0
2023-11-11T06:23:43.909Z,0
2023-11-11T06:25:00.079Z,0
2023-11-11T06:26:16.240Z,0
2023-11-11T06:27:32.393Z,4
2023-11-11T06:28:48.554Z,4
2023-11-11T06:30:04.739Z,0
2023-11-11T06:31:20.891Z,4
2023-11-11T06:32:36.061Z,4
2023-11-11T06:33:52.218Z,4
2023-11-11T06:35:08.397Z,8
2023-11-11T06:36:24.000Z,8
2023-11-11T06:37:40.708Z,8
2023-11-11T06:38:56.863Z,12
2023-11-11T06:40:13.036Z,12
2023-11-11T06:41:29.184Z,12
2023-11-11T06:42:45.364Z,8
2023-11-11T06:44:01.511Z,16
2023-11-11T06:45:17.673Z,16
2023-11-11T06:46:33.831Z,20
2023-11-11T06:47:49.998Z,20
2023-11-11T06:49:05.172Z,24
2023-11-11T06:50:21.337Z,24
2023-11-11T06:51:37.508Z,28
2023-11-11T06:52:53.665Z,36
2023-11-11T06:54:09.824Z,40
2023-11-11T06:55:26.001Z,48
2023-11-11T06:56:42.162Z,48
2023-11-11T06:57:58.328Z,56
2023-11-11T06:59:14.491Z,56
2023-11-11T07:00:30.649Z,60
2023-11-11T07:01:46.812Z,60
2023-11-11T07:03:02.979Z,60
2023-11-11T07:04:19.146Z,60
2023-11-11T07:05:35.295Z,60
2023-11-11T07:06:50.496Z,60
2023-11-11T07:08:06.657Z,56
2023-11-11T07:09:22.830Z,44
2023-11-11T07:10:38.980Z,40
2023-11-11T07:11:55.153Z,44
2023-11-11T07:13:11.333Z,44
2023-11-11T07:14:27.503Z,52
2023-11-11T07:15:43.669Z,60
2023-11-11T07:16:59.833Z,56
2023-11-11T07:18:15.990Z,64
2023-11-11T07:19:32.156Z,84
2023-11-11T07:20:48.335Z,96
2023-11-11T07:22:04.499Z,108
2023-11-11T07:23:20.672Z,116
2023-11-11T07:24:35.855Z,116
2023-11-11T07:25:52.027Z,116
2023-11-11T07:27:08.178Z,116
2023-11-11T07:28:24.345Z,124
2023-11-11T07:29:40.515Z,136
2023-11-11T07:30:56.688Z,140
2023-11-11T07:32:12.844Z,152
2023-11-11T07:33:29.008Z,188
2023-11-11T07:34:45.189Z,216
2023-11-11T07:36:01.360Z,244
2023-11-11T07:37:17.519Z,268
2023-11-11T07:38:33.676Z,292
2023-11-11T07:39:49.837Z,312
2023-11-11T07:41:06.006Z,328
2023-11-11T07:42:21.183Z,336
2023-11-11T07:43:37.354Z,344
2023-11-11T07:44:53.531Z,360
2023-11-11T07:46:09.691Z,380
2023-11-11T07:47:25.855Z,392
2023-11-11T07:48:42.007Z,408
2023-11-11T07:49:58.171Z,404
2023-11-11T07:51:14.351Z,376
2023-11-11T07:52:30.501Z,328
2023-11-11T07:53:46.680Z,264
2023-11-11T07:55:02.833Z,208
2023-11-11T07:56:19.006Z,184
2023-11-11T07:57:35.172Z,188
2023-11-11T07:58:51.333Z,200
2023-11-11T08:00:06.524Z,232
2023-11-11T08:01:22.680Z,260
2023-11-11T08:02:38.840Z,312
2023-11-11T08:03:54.997Z,352
2023-11-11T08:05:11.149Z,356
2023-11-11T08:06:27.312Z,296
2023-11-11T08:07:43.477Z,240
2023-11-11T08:08:59.634Z,220
2023-11-11T08:10:15.810Z,216
2023-11-11T08:11:31.965Z,224
2023-11-11T08:12:48.130Z,188
2023-11-11T08:14:04.273Z,180
2023-11-11T08:15:20.446Z,192
2023-11-11T08:16:35.608Z,176
2023-11-11T08:17:51.759Z,168
2023-11-11T08:19:07.917Z,168
2023-11-11T08:20:24.088Z,144
2023-11-11T08:21:40.246Z,160
2023-11-11T08:22:56.405Z,164
2023-11-11T08:24:12.555Z,164
2023-11-11T08:25:28.709Z,160
2023-11-11T08:26:44.878Z,172
2023-11-11T08:28:01.037Z,184
2023-11-11T08:29:17.201Z,212
2023-11-11T08:30:33.373Z,224
2023-11-11T08:31:49.531Z,244
2023-11-11T08:33:04.708Z,256
2023-11-11T08:34:20.857Z,276
2023-11-11T08:35:37.029Z,288
2023-11-11T08:36:53.186Z,344
2023-11-11T08:38:09.345Z,412
2023-11-11T08:39:25.524Z,428
2023-11-11T08:40:41.668Z,444
2023-11-11T08:41:57.833Z,460
2023-11-11T08:43:13.998Z,468
2023-11-11T08:44:30.170Z,508
2023-11-11T08:45:46.316Z,524
2023-11-11T08:47:02.479Z,488
2023-11-11T08:48:18.639Z,592
2023-11-11T08:49:33.798Z,712
2023-11-11T08:50:49.976Z,772
2023-11-11T08:52:06.138Z,660
2023-11-11T08:53:22.300Z,520
2023-11-11T08:54:38.451Z,512
2023-11-11T08:55:54.631Z,540
2023-11-11T08:57:10.779Z,636
2023-11-11T08:58:26.946Z,708
2023-11-11T08:59:43.110Z,748
2023-11-11T09:00:59.261Z,744
2023-11-11T09:02:15.433Z,672
2023-11-11T09:03:31.594Z,608
2023-11-11T09:04:47.735Z,576
2023-11-11T09:06:02.919Z,504
2023-11-11T09:07:19.084Z,512
2023-11-11T09:08:35.249Z,568
2023-11-11T09:09:50.426Z,548
2023-11-11T09:11:06.589Z,492
2023-11-11T09:12:22.768Z,496
2023-11-11T09:13:38.915Z,600
2023-11-11T09:14:55.092Z,624
2023-11-11T09:16:11.249Z,576
2023-11-11T09:17:27.412Z,692
2023-11-11T09:18:43.578Z,684
2023-11-11T09:19:59.744Z,728
2023-11-11T09:21:15.902Z,688
2023-11-11T09:22:32.081Z,800
2023-11-11T09:23:48.244Z,856
2023-11-11T09:25:04.403Z,700
2023-11-11T09:26:20.555Z,608
2023-11-11T09:27:35.733Z,604
2023-11-11T09:28:51.895Z,624
2023-11-11T09:30:08.060Z,644
2023-11-11T09:31:24.216Z,672
2023-11-11T09:32:40.383Z,720
2023-11-11T09:33:56.555Z,672
2023-11-11T09:35:12.712Z,640
2023-11-11T09:36:28.885Z,644
2023-11-11T09:37:45.029Z,668
2023-11-11T09:39:01.187Z,820
2023-11-11T09:40:17.352Z,984
2023-11-11T09:41:33.516Z,744
2023-11-11T09:42:49.674Z,808
2023-11-11T09:44:05.840Z,692
2023-11-11T09:45:21.022Z,736
2023-11-11T09:46:37.180Z,576
2023-11-11T09:47:53.332Z,664
2023-11-11T09:49:09.510Z,680
2023-11-11T09:50:25.667Z,524
2023-11-11T09:51:41.818Z,488
2023-11-11T09:52:57.990Z,700
2023-11-11T09:54:14.150Z,1068
2023-11-11T09:55:30.308Z,1160
2023-11-11T09:56:46.486Z,876
2023-11-11T09:58:02.630Z,500
2023-11-11T09:59:18.795Z,268
2023-11-11T10:00:34.973Z,276
2023-11-11T10:01:51.130Z,368
2023-11-11T10:03:06.300Z,520
2023-11-11T10:04:22.479Z,588
2023-11-11T10:05:38.637Z,676
2023-11-11T10:06:54.791Z,856
2023-11-11T10:08:10.953Z,756
2023-11-11T10:09:27.103Z,820
2023-11-11T10:10:43.282Z,1040
2023-11-11T10:11:59.442Z,1052
2023-11-11T10:13:15.598Z,928
2023-11-11T10:14:31.770Z,1388
2023-11-11T10:15:47.921Z,908
2023-11-11T10:17:04.094Z,908
2023-11-11T10:18:20.262Z,924
2023-11-11T10:19:36.405Z,900
2023-11-11T10:20:51.579Z,1360
2023-11-11T10:22:07.736Z,1728
2023-11-11T10:23:23.894Z,1684
2023-11-11T10:24:40.052Z,780
2023-11-11T10:25:56.210Z,780
2023-11-11T10:27:12.374Z,636
2023-11-11T10:28:28.532Z,676
2023-11-11T10:29:44.683Z,808
2023-11-11T10:31:00.849Z,932
2023-11-11T10:32:17.013Z,1020
2023-11-11T10:33:33.164Z,7832
2023-11-11T10:34:49.335Z,1876
2023-11-11T10:36:05.480Z,6444
2023-11-11T10:37:21.624Z,10600
2023-11-11T10:38:36.772Z,11256
2023-11-11T10:39:52.923Z,12296
2023-11-11T10:41:09.083Z,9144
2023-11-11T10:42:25.225Z,9316
2023-11-11T10:43:41.381Z,12192
2023-11-11T10:44:57.521Z,4404
2023-11-11T10:46:13.685Z,15436
2023-11-11T10:47:29.827Z,14656
2023-11-11T10:48:45.972Z,15200
2023-11-11T10:50:02.102Z,15260
2023-11-11T10:51:18.259Z,14908
2023-11-11T10:52:34.389Z,14084
2023-11-11T10:53:50.540Z,12072
2023-11-11T10:55:05.701Z,8228
2023-11-11T10:56:21.843Z,6608
2023-11-11T10:57:37.997Z,4632
2023-11-11T10:58:54.125Z,5484
2023-11-11T11:00:10.261Z,6228
2023-11-11T11:01:26.400Z,9788
2023-11-11T11:02:42.551Z,13416
2023-11-11T11:03:58.679Z,13880
2023-11-11T11:05:14.810Z,14236
2023-11-11T11:06:30.947Z,14056
2023-11-11T11:07:47.078Z,14204
2023-11-11T11:09:03.222Z,14216
2023-11-11T11:10:19.336Z,13540
2023-11-11T11:11:34.491Z,11700
2023-11-11T11:12:50.615Z,11736
2023-11-11T11:14:06.743Z,11944
2023-11-11T11:15:22.858Z,8784
2023-11-11T11:16:38.973Z,7724
2023-11-11T11:17:55.096Z,8720
2023-11-11T11:19:11.206Z,9600
2023-11-11T11:20:27.335Z,13420
2023-11-11T11:21:43.444Z,15844
2023-11-11T11:22:59.574Z,9740
2023-11-11T11:24:15.696Z,7884
2023-11-11T11:25:31.812Z,8188
2023-11-11T11:26:47.919Z,7644
2023-11-11T11:28:03.060Z,12976
2023-11-11T11:29:19.183Z,13604
2023-11-11T11:30:35.298Z,4172
2023-11-11T11:31:51.407Z,5556
2023-11-11T11:33:07.528Z,2840
2023-11-11T11:34:23.644Z,2440
2023-11-11T11:35:39.768Z,3852
2023-11-11T11:36:55.879Z,1328
2023-11-11T11:38:11.999Z,1052
2023-11-11T11:39:28.122Z,1172
2023-11-11T11:40:44.245Z,940
2023-11-11T11:42:00.353Z,972
2023-11-11T11:43:16.498Z,728
2023-11-11T11:44:31.642Z,556
2023-11-11T11:45:47.753Z,588
2023-11-11T11:47:03.883Z,660
2023-11-11T11:48:20.020Z,560
2023-11-11T11:49:36.142Z,536
2023-11-11T11:50:52.278Z,400
2023-11-11T11:52:08.394Z,320
2023-11-11T11:53:24.524Z,356
2023-11-11T11:54:40.674Z,368
2023-11-11T11:55:56.806Z,352
2023-11-11T11:57:12.948Z,316
2023-11-11T11:58:29.074Z,292
2023-11-11T11:59:45.215Z,304
2023-11-11T12:01:00.377Z,332
2023-11-11T12:02:16.499Z,308
2023-11-11T12:03:32.634Z,268
2023-11-11T12:04:48.766Z,304
2023-11-11T12:06:04.916Z,340
2023-11-11T12:07:21.053Z,312
2023-11-11T12:08:37.183Z,300
2023-11-11T12:09:53.334Z,260
2023-11-11T12:11:09.470Z,236
2023-11-11T12:12:25.611Z,220
2023-11-11T12:13:41.751Z,216
2023-11-11T12:14:57.887Z,216
2023-11-11T12:16:14.039Z,228
2023-11-11T12:17:29.199Z,256
2023-11-11T12:18:45.344Z,336
2023-11-11T12:20:01.480Z,480
2023-11-11T12:21:17.618Z,556
2023-11-11T12:22:33.766Z,636
2023-11-11T12:23:49.894Z,984
2023-11-11T12:25:06.041Z,1092
2023-11-11T12:26:22.185Z,2308
2023-11-11T12:27:38.315Z,2160
2023-11-11T12:28:54.459Z,12896
2023-11-11T12:30:10.589Z,2424
2023-11-11T12:31:26.745Z,3484
2023-11-11T12:32:42.863Z,2396
2023-11-11T12:33:58.033Z,1560
2023-11-11T12:36:30.306Z,780
2023-11-11T12:37:46.448Z,692
2023-11-11T12:39:02.578Z,660
2023-11-11T12:40:18.729Z,696
2023-11-11T12:41:34.872Z,576
2023-11-11T12:42:51.025Z,444
2023-11-11T12:44:07.173Z,376
2023-11-11T12:45:23.304Z,372
2023-11-11T12:46:39.461Z,416
2023-11-11T12:47:55.598Z,340
2023-11-11T12:49:11.737Z,236
2023-11-11T12:50:26.905Z,188
2023-11-11T12:51:43.048Z,148
2023-11-11T12:52:59.171Z,168
2023-11-11T12:54:15.313Z,148
2023-11-11T12:55:31.466Z,128
2023-11-11T12:56:47.605Z,128
2023-11-11T12:58:03.745Z,144
2023-11-11T12:59:19.882Z,176
2023-11-11T13:00:36.025Z,220
2023-11-11T13:01:52.171Z,332
2023-11-11T13:03:08.313Z,468
2023-11-11T13:04:24.470Z,684
2023-11-11T13:05:40.621Z,1024
2023-11-11T13:06:55.784Z,2224
2023-11-11T13:08:11.928Z,1536
2023-11-11T13:09:28.070Z,1892
2023-11-11T13:10:44.231Z,1504
2023-11-11T13:12:00.374Z,920
2023-11-11T13:13:16.517Z,952
2023-11-11T13:14:32.666Z,1332
2023-11-11T13:15:48.809Z,712
2023-11-11T13:17:04.961Z,700
2023-11-11T13:18:21.119Z,904
2023-11-11T13:19:37.250Z,1080
2023-11-11T13:20:53.394Z,1128
2023-11-11T13:22:09.532Z,1116
2023-11-11T13:23:24.707Z,1424
2023-11-11T13:24:39.861Z,1052
2023-11-11T13:25:56.003Z,1332
2023-11-11T13:27:12.148Z,1008
2023-11-11T13:28:28.299Z,1444
2023-11-11T13:29:44.457Z,1204
2023-11-11T13:31:00.601Z,748
2023-11-11T13:32:16.737Z,700
2023-11-11T13:33:32.882Z,968
2023-11-11T13:34:49.011Z,916
2023-11-11T13:36:05.174Z,452
2023-11-11T13:37:21.306Z,364
2023-11-11T13:38:37.471Z,400
2023-11-11T13:39:53.622Z,400
2023-11-11T13:41:08.771Z,468
2023-11-11T13:42:24.927Z,560
2023-11-11T13:43:41.072Z,588
2023-11-11T13:44:57.208Z,880
2023-11-11T13:46:13.368Z,1020
2023-11-11T13:47:29.502Z,896
2023-11-11T13:48:45.653Z,740
2023-11-11T13:50:01.803Z,596
2023-11-11T13:51:17.941Z,496
2023-11-11T13:52:34.096Z,332
2023-11-11T13:53:50.256Z,204
2023-11-11T13:55:06.407Z,156
2023-11-11T13:56:22.551Z,196
2023-11-11T13:57:37.707Z,324
2023-11-11T13:58:53.864Z,708
2023-11-11T14:00:09.995Z,988
2023-11-11T14:01:26.150Z,1116
2023-11-11T14:02:42.309Z,896
2023-11-11T14:03:58.446Z,696
2023-11-11T14:05:14.604Z,560
2023-11-11T14:06:30.746Z,328
2023-11-11T14:07:46.912Z,192
2023-11-11T14:09:03.056Z,184
2023-11-11T14:10:19.213Z,180
2023-11-11T14:11:35.359Z,180
2023-11-11T14:12:51.508Z,196
2023-11-11T14:14:07.674Z,252
2023-11-11T14:15:22.849Z,312
2023-11-11T14:16:39.006Z,336
2023-11-11T14:17:55.148Z,340
2023-11-11T14:19:11.310Z,300
2023-11-11T14:20:27.459Z,332
2023-11-11T14:21:43.625Z,448
2023-11-11T14:22:59.775Z,860
2023-11-11T14:24:15.933Z,1072
2023-11-11T14:25:32.098Z,984
2023-11-11T14:26:48.244Z,1148
2023-11-11T14:28:04.407Z,1408
2023-11-11T14:29:20.571Z,1416
2023-11-11T14:30:36.707Z,1396
2023-11-11T14:31:51.874Z,1428
2023-11-11T14:33:08.043Z,1476
2023-11-11T14:34:24.180Z,1404
2023-11-11T14:35:40.345Z,1248
2023-11-11T14:36:56.481Z,1264
2023-11-11T14:38:12.639Z,1304
2023-11-11T14:39:28.778Z,1236
2023-11-11T14:40:44.946Z,1036
2023-11-11T14:42:01.091Z,996
2023-11-11T14:43:17.249Z,964
2023-11-11T14:44:33.386Z,856
2023-11-11T14:45:49.530Z,856
2023-11-11T14:47:05.692Z,888
2023-11-11T14:48:20.849Z,692
2023-11-11T14:49:37.017Z,568
2023-11-11T14:50:53.158Z,516
2023-11-11T14:52:09.303Z,516
2023-11-11T14:53:25.459Z,544
2023-11-11T14:54:41.604Z,492
2023-11-11T14:55:57.747Z,436
2023-11-11T14:57:13.905Z,456
2023-11-11T14:58:30.049Z,536
2023-11-11T14:59:46.203Z,580
2023-11-11T15:01:02.343Z,584
2023-11-11T15:02:18.501Z,600
2023-11-11T15:03:34.648Z,652
2023-11-11T15:04:49.829Z,708
2023-11-11T15:06:05.986Z,660
2023-11-11T15:07:22.145Z,636
2023-11-11T15:08:38.302Z,584
2023-11-11T15:09:54.459Z,568
2023-11-11T15:11:10.624Z,524
2023-11-11T15:12:26.755Z,480
2023-11-11T15:13:42.919Z,408
2023-11-11T15:14:59.084Z,420
2023-11-11T15:16:15.235Z,416
2023-11-11T15:17:31.377Z,404
2023-11-11T15:18:47.545Z,356
2023-11-11T15:20:03.687Z,316
2023-11-11T15:21:18.860Z,284
2023-11-11T15:22:35.007Z,236
2023-11-11T15:23:51.171Z,180
2023-11-11T15:25:07.317Z,148
2023-11-11T15:26:23.467Z,116
2023-11-11T15:27:39.616Z,96
2023-11-11T15:30:11.934Z,84
2023-11-11T15:31:28.084Z,72
2023-11-11T15:32:44.236Z,64
2023-11-11T15:34:00.380Z,60
2023-11-11T15:35:16.537Z,52
2023-11-11T15:36:32.681Z,56
2023-11-11T15:37:47.849Z,60
2023-11-11T15:39:04.008Z,76
2023-11-11T15:40:20.146Z,76
2023-11-11T15:41:36.308Z,84
2023-11-11T15:42:52.446Z,92
2023-11-11T15:44:08.611Z,84
2023-11-11T15:45:24.762Z,76
2023-11-11T15:46:40.912Z,68
2023-11-11T15:47:57.063Z,60
2023-11-11T15:49:13.221Z,56
2023-11-11T15:50:29.380Z,48
2023-11-11T15:51:45.553Z,44
2023-11-11T15:53:01.715Z,36
2023-11-11T15:54:16.871Z,36
2023-11-11T15:55:33.036Z,28
2023-11-11T15:56:49.186Z,24
2023-11-11T15:58:05.330Z,20
2023-11-11T15:59:21.499Z,20
2023-11-11T16:00:37.639Z,12
2023-11-11T16:01:53.804Z,12
2023-11-11T16:03:09.954Z,8
2023-11-11T16:04:26.114Z,4
2023-11-11T16:05:42.264Z,4
2023-11-11T16:06:58.408Z,8
2023-11-11T16:08:14.572Z,4
2023-11-11T16:09:30.737Z,4
2023-11-11T16:10:45.892Z,4
2023-11-11T16:12:02.000Z,0
2023-11-11T16:13:18.221Z,4
2023-11-11T16:14:34.359Z,4
2023-11-11T16:15:50.517Z,0
2023-11-11T16:17:06.688Z,0
2023-11-11T16:18:22.840Z,0
2023-11-11T16:19:39.011Z,0
2023-11-11T16:20:55.154Z,0
2023-11-11T16:22:11.305Z,0
2023-11-11T16:23:27.468Z,0
2023-11-11T16:24:43.610Z,0
2023-11-11T16:25:59.765Z,0
2023-11-11T16:27:14.946Z,0
2023-11-11T16:28:31.106Z,0
2023-11-11T16:29:47.257Z,0
2023-11-11T16:31:03.415Z,0
2023-11-11T16:32:19.560Z,0
2023-11-11T16:33:35.716Z,0
2023-11-11T16:34:51.866Z,0
2023-11-11T16:36:08.018Z,0
2023-11-11T16:37:24.175Z,0
2023-11-11T16:38:40.343Z,0
2023-11-11T16:39:56.499Z,0
2023-11-11T16:41:12.650Z,0
2023-11-11T16:42:28.802Z,0
2023-11-11T16:43:43.969Z,0
2023-11-11T16:45:00.126Z,0
2023-11-11T16:46:16.279Z,0
2023-11-11T16:47:32.429Z,0
2023-11-11T16:48:48.595Z,0
2023-11-11T16:50:04.757Z,0
2023-11-11T16:51:20.894Z,0
2023-11-11T16:52:37.046Z,0
2023-11-11T16:53:53.205Z,0
2023-11-11T16:55:09.348Z,0
2023-11-11T16:56:25.521Z,0
2023-11-11T16:57:41.679Z,0
2023-11-11T16:58:57.835Z,0
2023-11-11T17:00:13.006Z,0
2023-11-11T17:01:29.152Z,0
2023-11-11T17:02:45.327Z,0
2023-11-11T17:04:01.472Z,0
2023-11-11T17:05:17.629Z,0
2023-11-11T17:06:33.786Z,0
2023-11-11T17:07:49.939Z,0
2023-11-11T17:09:06.088Z,0
2023-11-11T17:10:22.246Z,0
2023-11-11T17:11:38.406Z,0
2023-11-11T17:12:54.556Z,0
2023-11-11T17:14:10.706Z,0
2023-11-11T17:15:26.842Z,0
2023-11-11T17:16:42.018Z,0
2023-11-11T17:17:58.185Z,0
2023-11-11T17:19:14.355Z,0
2023-11-11T17:20:30.496Z,0
2023-11-11T17:21:46.657Z,0
2023-11-11T17:23:02.815Z,0
2023-11-11T17:24:18.980Z,0
2023-11-11T17:25:35.124Z,0
2023-11-11T17:26:51.282Z,0
2023-11-11T17:28:07.432Z,0
2023-11-11T17:29:23.590Z,0
2023-11-11T17:30:39.755Z,0
2023-11-11T17:31:55.919Z,0
2023-11-11T17:33:11.075Z,0
2023-11-11T17:34:27.233Z,0
2023-11-11T17:35:43.398Z,0
2023-11-11T17:36:59.555Z,0
2023-11-11T17:38:15.713Z,0
2023-11-11T17:39:30.883Z,0
2023-11-11T17:40:47.047Z,0
2023-11-11T17:42:03.183Z,0
2023-11-11T17:43:19.341Z,0
2023-11-11T17:44:35.486Z,0
2023-11-11T17:45:51.663Z,0
2023-11-11T17:47:07.821Z,0
2023-11-11T17:48:23.973Z,0
2023-11-11T17:49:40.131Z,0
2023-11-11T17:50:56.310Z,0
2023-11-11T17:52:12.461Z,0
2023-11-11T17:53:28.621Z,0
2023-11-11T17:54:44.777Z,0
2023-11-11T17:55:59.960Z,0
2023-11-11T17:57:16.118Z,0
2023-11-11T17:58:32.262Z,0
2023-11-11T17:59:48.432Z,0
2023-11-11T18:01:04.571Z,0
2023-11-11T18:02:20.742Z,0
2023-11-11T18:03:36.900Z,0